sensor_id;sensor_type;location;lat;lon;timestamp;P1;P2;P0
44933;PMS3003;30667;43.614;1.442;2023-09-30T00:01:02;9.00;8.00;4.40
44933;PMS3003;30667;43.614;1.442;2023-09-30T00:03:28;10.40;10.00;5.00
44933;PMS3003;30667;43.614;1.442;2023-09-30T00:05:54;10.75;9.00;4.75
44933;PMS3003;30667;43.614;1.442;2023-09-30T00:08:20;10.00;10.00;4.80
44933;PMS3003;30667;43.614;1.442;2023-09-30T00:10:45;11.50;8.00;4.00
44933;PMS3003;30667;43.614;1.442;2023-09-30T00:13:11;9.60;8.60;3.40
44933;PMS3003;30667;43.614;1.442;2023-09-30T00:15:37;9.50;9.00;5.00
44933;PMS3003;30667;43.614;1.442;2023-09-30T00:18:03;10.00;9.00;5.00
44933;PMS3003;30667;43.614;1.442;2023-09-30T00:20:30;10.00;9.00;4.40
44933;PMS3003;30667;43.614;1.442;2023-09-30T00:22:55;10.00;8.25;5.00
44933;PMS3003;30667;43.614;1.442;2023-09-30T00:25:21;10.00;9.00;5.00
44933;PMS3003;30667;43.614;1.442;2023-09-30T00:27:47;8.75;8.00;3.75
44933;PMS3003;30667;43.614;1.442;2023-09-30T00:30:12;8.80;8.40;4.40
44933;PMS3003;30667;43.614;1.442;2023-09-30T00:32:38;12.50;8.00;4.50
44933;PMS3003;30667;43.614;1.442;2023-09-30T00:35:04;15.20;11.60;5.00
44933;PMS3003;30667;43.614;1.442;2023-09-30T00:37:36;10.80;9.00;5.00
44933;PMS3003;30667;43.614;1.442;2023-09-30T00:40:04;10.80;10.00;4.80
44933;PMS3003;30667;43.614;1.442;2023-09-30T00:42:30;10.00;8.60;4.20
44933;PMS3003;30667;43.614;1.442;2023-09-30T00:44:55;9.00;8.75;4.50
44933;PMS3003;30667;43.614;1.442;2023-09-30T00:47:21;9.00;8.50;4.00
44933;PMS3003;30667;43.614;1.442;2023-09-30T00:49:48;9.60;9.00;4.00
44933;PMS3003;30667;43.614;1.442;2023-09-30T00:52:16;11.40;9.40;4.80
44933;PMS3003;30667;43.614;1.442;2023-09-30T00:54:43;9.40;8.80;4.40
44933;PMS3003;30667;43.614;1.442;2023-09-30T00:57:09;9.80;8.60;4.00
44933;PMS3003;30667;43.614;1.442;2023-09-30T00:59:36;9.00;8.00;5.00
44933;PMS3003;30667;43.614;1.442;2023-09-30T01:02:03;10.00;9.00;4.00
44933;PMS3003;30667;43.614;1.442;2023-09-30T01:04:30;11.00;9.00;4.00
44933;PMS3003;30667;43.614;1.442;2023-09-30T01:06:56;10.75;9.75;5.00
44933;PMS3003;30667;43.614;1.442;2023-09-30T01:09:24;10.00;9.40;4.00
44933;PMS3003;30667;43.614;1.442;2023-09-30T01:11:50;10.40;9.20;4.20
44933;PMS3003;30667;43.614;1.442;2023-09-30T01:16:51;14.20;10.20;4.20
44933;PMS3003;30667;43.614;1.442;2023-09-30T01:19:16;8.25;7.25;3.00
44933;PMS3003;30667;43.614;1.442;2023-09-30T01:21:42;9.75;9.00;4.50
44933;PMS3003;30667;43.614;1.442;2023-09-30T01:24:13;9.80;8.80;4.00
44933;PMS3003;30667;43.614;1.442;2023-09-30T01:26:39;9.75;9.00;5.50
44933;PMS3003;30667;43.614;1.442;2023-09-30T01:29:04;11.00;10.00;5.00
44933;PMS3003;30667;43.614;1.442;2023-09-30T01:31:29;14.00;10.00;5.00
44933;PMS3003;30667;43.614;1.442;2023-09-30T01:33:55;11.25;9.00;5.50
44933;PMS3003;30667;43.614;1.442;2023-09-30T01:36:21;11.00;9.80;5.00
44933;PMS3003;30667;43.614;1.442;2023-09-30T01:38:46;13.25;11.00;5.00
44933;PMS3003;30667;43.614;1.442;2023-09-30T01:41:11;12.25;11.00;5.00
44933;PMS3003;30667;43.614;1.442;2023-09-30T01:43:37;11.50;10.00;5.00
44933;PMS3003;30667;43.614;1.442;2023-09-30T01:46:02;10.75;9.25;5.75
44933;PMS3003;30667;43.614;1.442;2023-09-30T01:48:28;11.00;9.25;5.00
44933;PMS3003;30667;43.614;1.442;2023-09-30T01:50:53;8.50;8.00;5.00
44933;PMS3003;30667;43.614;1.442;2023-09-30T01:53:18;10.50;9.25;5.00
44933;PMS3003;30667;43.614;1.442;2023-09-30T01:55:44;13.50;11.50;5.00
44933;PMS3003;30667;43.614;1.442;2023-09-30T01:58:09;12.75;11.00;5.25
44933;PMS3003;30667;43.614;1.442;2023-09-30T02:00:36;9.80;9.20;4.00
44933;PMS3003;30667;43.614;1.442;2023-09-30T02:03:01;11.75;9.75;4.00
44933;PMS3003;30667;43.614;1.442;2023-09-30T02:05:27;11.50;10.00;5.75
44933;PMS3003;30667;43.614;1.442;2023-09-30T02:07:52;10.50;8.50;4.50
44933;PMS3003;30667;43.614;1.442;2023-09-30T02:10:17;11.50;9.00;4.00
44933;PMS3003;30667;43.614;1.442;2023-09-30T02:12:46;9.20;8.40;5.00
44933;PMS3003;30667;43.614;1.442;2023-09-30T02:15:12;9.75;8.50;4.75
44933;PMS3003;30667;43.614;1.442;2023-09-30T02:17:37;10.80;9.40;5.00
44933;PMS3003;30667;43.614;1.442;2023-09-30T02:20:03;9.00;9.00;4.00
44933;PMS3003;30667;43.614;1.442;2023-09-30T02:22:38;11.40;9.00;4.80
44933;PMS3003;30667;43.614;1.442;2023-09-30T02:25:04;10.40;9.60;4.40
44933;PMS3003;30667;43.614;1.442;2023-09-30T02:27:32;11.20;9.80;4.60
44933;PMS3003;30667;43.614;1.442;2023-09-30T02:29:57;15.50;10.75;5.00
44933;PMS3003;30667;43.614;1.442;2023-09-30T02:32:23;12.00;9.00;5.00
44933;PMS3003;30667;43.614;1.442;2023-09-30T02:34:49;10.80;9.00;4.40
44933;PMS3003;30667;43.614;1.442;2023-09-30T02:37:15;11.80;9.00;5.00
44933;PMS3003;30667;43.614;1.442;2023-09-30T02:39:41;9.00;8.40;4.20
44933;PMS3003;30667;43.614;1.442;2023-09-30T02:42:08;10.40;9.00;4.20
44933;PMS3003;30667;43.614;1.442;2023-09-30T02:44:34;10.25;7.75;4.00
44933;PMS3003;30667;43.614;1.442;2023-09-30T02:46:59;8.75;8.00;4.00
44933;PMS3003;30667;43.614;1.442;2023-09-30T02:49:24;9.75;8.00;4.00
44933;PMS3003;30667;43.614;1.442;2023-09-30T02:51:50;10.00;8.75;4.00
44933;PMS3003;30667;43.614;1.442;2023-09-30T02:54:15;12.50;10.50;5.00
44933;PMS3003;30667;43.614;1.442;2023-09-30T02:56:41;9.20;9.00;4.00
44933;PMS3003;30667;43.614;1.442;2023-09-30T02:59:07;8.00;7.25;4.00
44933;PMS3003;30667;43.614;1.442;2023-09-30T03:01:33;11.75;10.00;4.00
44933;PMS3003;30667;43.614;1.442;2023-09-30T03:03:58;10.80;9.20;5.00
44933;PMS3003;30667;43.614;1.442;2023-09-30T03:06:23;8.25;7.75;4.00
44933;PMS3003;30667;43.614;1.442;2023-09-30T03:08:49;9.00;8.00;4.00
44933;PMS3003;30667;43.614;1.442;2023-09-30T03:11:14;11.50;9.75;4.00
44933;PMS3003;30667;43.614;1.442;2023-09-30T03:13:40;10.00;8.25;3.50
44933;PMS3003;30667;43.614;1.442;2023-09-30T03:16:07;8.40;8.00;3.00
44933;PMS3003;30667;43.614;1.442;2023-09-30T03:18:33;12.20;8.20;3.80
44933;PMS3003;30667;43.614;1.442;2023-09-30T03:20:59;11.25;9.75;5.00
44933;PMS3003;30667;43.614;1.442;2023-09-30T03:23:28;12.00;9.00;4.00
44933;PMS3003;30667;43.614;1.442;2023-09-30T03:25:58;10.60;10.00;4.80
44933;PMS3003;30667;43.614;1.442;2023-09-30T03:28:24;13.40;10.40;5.00
44933;PMS3003;30667;43.614;1.442;2023-09-30T03:30:50;11.75;10.00;4.00
44933;PMS3003;30667;43.614;1.442;2023-09-30T03:33:15;9.75;8.00;4.00
44933;PMS3003;30667;43.614;1.442;2023-09-30T03:35:40;10.75;9.75;4.00
44933;PMS3003;30667;43.614;1.442;2023-09-30T03:38:06;9.40;8.40;4.00
44933;PMS3003;30667;43.614;1.442;2023-09-30T03:40:34;9.20;7.40;3.40
44933;PMS3003;30667;43.614;1.442;2023-09-30T03:43:03;9.00;8.60;4.00
44933;PMS3003;30667;43.614;1.442;2023-09-30T03:45:30;11.60;9.80;4.40
44933;PMS3003;30667;43.614;1.442;2023-09-30T03:47:57;12.60;11.00;4.80
44933;PMS3003;30667;43.614;1.442;2023-09-30T03:50:23;9.75;8.50;4.00
44933;PMS3003;30667;43.614;1.442;2023-09-30T03:52:49;10.80;8.60;3.60
44933;PMS3003;30667;43.614;1.442;2023-09-30T03:55:15;11.25;9.75;5.00
44933;PMS3003;30667;43.614;1.442;2023-09-30T03:57:43;12.60;10.00;4.00
44933;PMS3003;30667;43.614;1.442;2023-09-30T04:00:12;12.00;10.00;5.00
44933;PMS3003;30667;43.614;1.442;2023-09-30T04:02:41;10.80;10.20;5.60
44933;PMS3003;30667;43.614;1.442;2023-09-30T04:05:07;9.80;9.80;4.60
44933;PMS3003;30667;43.614;1.442;2023-09-30T04:07:36;11.00;10.20;5.20
44933;PMS3003;30667;43.614;1.442;2023-09-30T04:10:02;10.25;9.50;4.00
44933;PMS3003;30667;43.614;1.442;2023-09-30T04:12:29;9.80;9.40;5.00
44933;PMS3003;30667;43.614;1.442;2023-09-30T04:14:54;11.75;10.75;5.00
44933;PMS3003;30667;43.614;1.442;2023-09-30T04:17:20;11.00;11.00;4.00
44933;PMS3003;30667;43.614;1.442;2023-09-30T04:19:48;9.00;9.00;5.00
44933;PMS3003;30667;43.614;1.442;2023-09-30T04:22:16;10.60;10.00;5.00
44933;PMS3003;30667;43.614;1.442;2023-09-30T04:24:41;12.40;10.80;5.40
44933;PMS3003;30667;43.614;1.442;2023-09-30T04:27:07;9.00;9.00;5.00
44933;PMS3003;30667;43.614;1.442;2023-09-30T04:29:32;10.50;9.00;4.00
44933;PMS3003;30667;43.614;1.442;2023-09-30T04:31:59;12.80;10.60;5.00
44933;PMS3003;30667;43.614;1.442;2023-09-30T04:34:25;11.00;8.25;4.00
44933;PMS3003;30667;43.614;1.442;2023-09-30T04:36:52;10.60;9.20;5.00
44933;PMS3003;30667;43.614;1.442;2023-09-30T04:39:18;9.50;8.75;5.00
44933;PMS3003;30667;43.614;1.442;2023-09-30T04:41:43;10.25;9.50;5.00
44933;PMS3003;30667;43.614;1.442;2023-09-30T04:44:09;11.75;9.75;4.75
44933;PMS3003;30667;43.614;1.442;2023-09-30T04:46:35;11.00;9.25;4.50
44933;PMS3003;30667;43.614;1.442;2023-09-30T04:49:01;11.40;10.40;5.00
44933;PMS3003;30667;43.614;1.442;2023-09-30T04:51:27;10.00;9.00;4.80
44933;PMS3003;30667;43.614;1.442;2023-09-30T04:53:52;10.00;9.00;6.00
44933;PMS3003;30667;43.614;1.442;2023-09-30T04:56:19;8.20;8.00;4.00
44933;PMS3003;30667;43.614;1.442;2023-09-30T04:58:45;11.00;10.00;5.00
44933;PMS3003;30667;43.614;1.442;2023-09-30T05:01:12;11.40;10.00;5.00
44933;PMS3003;30667;43.614;1.442;2023-09-30T05:03:37;8.75;8.00;4.00
44933;PMS3003;30667;43.614;1.442;2023-09-30T05:06:02;9.50;8.25;4.50
44933;PMS3003;30667;43.614;1.442;2023-09-30T05:08:28;9.50;7.75;4.25
44933;PMS3003;30667;43.614;1.442;2023-09-30T05:10:54;10.00;10.00;5.40
44933;PMS3003;30667;43.614;1.442;2023-09-30T05:13:21;11.40;9.40;5.20
44933;PMS3003;30667;43.614;1.442;2023-09-30T05:15:48;8.80;8.80;4.60
44933;PMS3003;30667;43.614;1.442;2023-09-30T05:18:14;9.60;9.00;5.00
44933;PMS3003;30667;43.614;1.442;2023-09-30T05:20:40;11.25;10.50;5.00
44933;PMS3003;30667;43.614;1.442;2023-09-30T05:23:06;12.40;10.60;5.40
44933;PMS3003;30667;43.614;1.442;2023-09-30T05:25:37;9.60;9.60;5.60
44933;PMS3003;30667;43.614;1.442;2023-09-30T05:28:03;10.20;9.00;5.00
44933;PMS3003;30667;43.614;1.442;2023-09-30T05:30:29;9.80;9.20;5.00
44933;PMS3003;30667;43.614;1.442;2023-09-30T05:32:54;10.00;8.75;5.00
44933;PMS3003;30667;43.614;1.442;2023-09-30T05:35:20;10.00;9.25;4.00
44933;PMS3003;30667;43.614;1.442;2023-09-30T05:37:47;12.00;10.60;5.00
44933;PMS3003;30667;43.614;1.442;2023-09-30T05:40:12;10.00;10.00;5.25
44933;PMS3003;30667;43.614;1.442;2023-09-30T05:42:48;10.40;8.80;4.00
44933;PMS3003;30667;43.614;1.442;2023-09-30T05:45:15;10.60;8.40;4.40
44933;PMS3003;30667;43.614;1.442;2023-09-30T05:47:40;10.00;9.60;5.00
44933;PMS3003;30667;43.614;1.442;2023-09-30T05:50:06;12.25;10.25;5.00
44933;PMS3003;30667;43.614;1.442;2023-09-30T05:52:33;11.00;10.00;6.00
44933;PMS3003;30667;43.614;1.442;2023-09-30T05:54:59;13.00;9.25;6.00
44933;PMS3003;30667;43.614;1.442;2023-09-30T05:57:26;10.60;10.40;5.20
44933;PMS3003;30667;43.614;1.442;2023-09-30T05:59:51;10.00;8.75;5.00
44933;PMS3003;30667;43.614;1.442;2023-09-30T06:02:17;11.00;9.50;4.75
44933;PMS3003;30667;43.614;1.442;2023-09-30T06:04:42;11.75;10.00;4.75
44933;PMS3003;30667;43.614;1.442;2023-09-30T06:07:07;9.75;9.50;4.75
44933;PMS3003;30667;43.614;1.442;2023-09-30T06:09:33;11.00;9.75;5.50
44933;PMS3003;30667;43.614;1.442;2023-09-30T06:11:59;11.25;9.00;5.00
44933;PMS3003;30667;43.614;1.442;2023-09-30T06:14:28;10.00;9.00;4.60
44933;PMS3003;30667;43.614;1.442;2023-09-30T06:16:56;10.80;10.40;5.40
44933;PMS3003;30667;43.614;1.442;2023-09-30T06:19:22;10.00;9.00;4.75
44933;PMS3003;30667;43.614;1.442;2023-09-30T06:21:50;8.80;8.80;3.80
44933;PMS3003;30667;43.614;1.442;2023-09-30T06:24:16;10.00;8.00;4.75
44933;PMS3003;30667;43.614;1.442;2023-09-30T06:26:42;9.25;8.00;5.00
44933;PMS3003;30667;43.614;1.442;2023-09-30T06:29:07;8.00;7.00;4.00
44933;PMS3003;30667;43.614;1.442;2023-09-30T06:31:32;8.50;8.00;5.00
44933;PMS3003;30667;43.614;1.442;2023-09-30T06:33:59;8.40;8.00;5.00
44933;PMS3003;30667;43.614;1.442;2023-09-30T06:36:25;9.00;9.00;5.00
44933;PMS3003;30667;43.614;1.442;2023-09-30T06:38:51;8.75;8.00;4.25
44933;PMS3003;30667;43.614;1.442;2023-09-30T06:41:17;9.60;8.00;5.00
44933;PMS3003;30667;43.614;1.442;2023-09-30T06:43:43;9.00;8.80;5.20
44933;PMS3003;30667;43.614;1.442;2023-09-30T06:46:09;10.60;10.00;5.00
44933;PMS3003;30667;43.614;1.442;2023-09-30T06:48:36;10.80;8.60;4.20
44933;PMS3003;30667;43.614;1.442;2023-09-30T06:51:02;7.80;7.60;4.00
44933;PMS3003;30667;43.614;1.442;2023-09-30T06:53:28;11.00;9.00;4.00
44933;PMS3003;30667;43.614;1.442;2023-09-30T06:55:53;8.25;8.00;4.00
44933;PMS3003;30667;43.614;1.442;2023-09-30T06:58:19;11.50;10.50;6.00
44933;PMS3003;30667;43.614;1.442;2023-09-30T07:00:48;10.00;8.00;4.00
44933;PMS3003;30667;43.614;1.442;2023-09-30T07:03:15;8.40;8.00;4.00
44933;PMS3003;30667;43.614;1.442;2023-09-30T07:05:41;10.20;10.00;5.80
44933;PMS3003;30667;43.614;1.442;2023-09-30T07:08:08;10.00;8.80;4.60
44933;PMS3003;30667;43.614;1.442;2023-09-30T07:10:34;9.80;8.80;4.40
44933;PMS3003;30667;43.614;1.442;2023-09-30T07:13:01;9.75;8.50;5.00
44933;PMS3003;30667;43.614;1.442;2023-09-30T07:15:27;8.60;8.60;4.40
44933;PMS3003;30667;43.614;1.442;2023-09-30T07:17:53;12.00;10.75;5.75
44933;PMS3003;30667;43.614;1.442;2023-09-30T07:20:18;9.00;9.00;5.50
44933;PMS3003;30667;43.614;1.442;2023-09-30T07:22:44;9.40;9.00;6.00
44933;PMS3003;30667;43.614;1.442;2023-09-30T07:25:10;10.50;9.00;5.00
44933;PMS3003;30667;43.614;1.442;2023-09-30T07:27:35;9.50;8.50;5.00
44933;PMS3003;30667;43.614;1.442;2023-09-30T07:30:01;8.50;8.00;5.00
44933;PMS3003;30667;43.614;1.442;2023-09-30T07:32:27;10.20;9.00;5.40
44933;PMS3003;30667;43.614;1.442;2023-09-30T07:34:52;10.50;9.50;5.50
44933;PMS3003;30667;43.614;1.442;2023-09-30T07:37:18;11.00;9.75;5.50
44933;PMS3003;30667;43.614;1.442;2023-09-30T07:39:44;8.80;8.00;5.00
44933;PMS3003;30667;43.614;1.442;2023-09-30T07:42:10;9.20;8.60;5.20
44933;PMS3003;30667;43.614;1.442;2023-09-30T07:44:35;8.75;8.75;5.00
44933;PMS3003;30667;43.614;1.442;2023-09-30T07:47:02;11.80;10.80;5.00
44933;PMS3003;30667;43.614;1.442;2023-09-30T07:49:29;10.60;8.60;4.60
44933;PMS3003;30667;43.614;1.442;2023-09-30T07:51:55;9.40;8.40;4.20
44933;PMS3003;30667;43.614;1.442;2023-09-30T07:54:20;9.25;8.50;5.00
44933;PMS3003;30667;43.614;1.442;2023-09-30T07:56:46;9.75;8.75;5.00
44933;PMS3003;30667;43.614;1.442;2023-09-30T07:59:11;9.00;8.75;5.25
44933;PMS3003;30667;43.614;1.442;2023-09-30T08:01:36;8.25;7.75;4.00
44933;PMS3003;30667;43.614;1.442;2023-09-30T08:04:02;8.25;7.75;4.25
44933;PMS3003;30667;43.614;1.442;2023-09-30T08:06:28;10.00;9.00;5.00
44933;PMS3003;30667;43.614;1.442;2023-09-30T08:08:53;9.75;8.00;4.75
44933;PMS3003;30667;43.614;1.442;2023-09-30T08:11:20;9.60;9.00;5.20
44933;PMS3003;30667;43.614;1.442;2023-09-30T08:13:45;10.00;9.25;5.50
44933;PMS3003;30667;43.614;1.442;2023-09-30T08:16:11;10.00;9.00;5.00
44933;PMS3003;30667;43.614;1.442;2023-09-30T08:18:38;9.60;9.00;5.00
44933;PMS3003;30667;43.614;1.442;2023-09-30T08:21:03;14.25;10.00;5.50
44933;PMS3003;30667;43.614;1.442;2023-09-30T08:23:30;11.00;9.80;5.00
44933;PMS3003;30667;43.614;1.442;2023-09-30T08:25:58;9.40;8.60;4.60
44933;PMS3003;30667;43.614;1.442;2023-09-30T08:28:24;10.80;9.60;4.20
44933;PMS3003;30667;43.614;1.442;2023-09-30T08:30:49;8.75;8.00;5.00
44933;PMS3003;30667;43.614;1.442;2023-09-30T08:33:16;9.20;9.00;5.00
44933;PMS3003;30667;43.614;1.442;2023-09-30T08:35:41;9.25;8.50;5.00
44933;PMS3003;30667;43.614;1.442;2023-09-30T08:38:07;9.25;8.50;3.00
44933;PMS3003;30667;43.614;1.442;2023-09-30T08:40:32;12.00;9.75;5.00
44933;PMS3003;30667;43.614;1.442;2023-09-30T08:42:58;8.00;8.00;4.25
44933;PMS3003;30667;43.614;1.442;2023-09-30T08:45:24;8.60;8.60;4.00
44933;PMS3003;30667;43.614;1.442;2023-09-30T08:47:53;8.00;7.00;4.00
44933;PMS3003;30667;43.614;1.442;2023-09-30T08:50:19;9.80;8.60;4.00
44933;PMS3003;30667;43.614;1.442;2023-09-30T08:52:47;6.60;6.40;3.40
44933;PMS3003;30667;43.614;1.442;2023-09-30T08:55:13;9.80;8.80;3.80
44933;PMS3003;30667;43.614;1.442;2023-09-30T08:57:42;12.75;8.50;4.00
44933;PMS3003;30667;43.614;1.442;2023-09-30T09:00:08;9.00;8.00;4.60
44933;PMS3003;30667;43.614;1.442;2023-09-30T09:02:41;8.80;7.80;3.60
44933;PMS3003;30667;43.614;1.442;2023-09-30T09:05:07;8.00;8.00;4.00
44933;PMS3003;30667;43.614;1.442;2023-09-30T09:07:34;10.00;8.40;4.00
44933;PMS3003;30667;43.614;1.442;2023-09-30T09:10:07;8.00;7.00;3.00
44933;PMS3003;30667;43.614;1.442;2023-09-30T09:12:38;7.00;6.20;3.00
44933;PMS3003;30667;43.614;1.442;2023-09-30T09:15:05;9.60;8.00;3.00
44933;PMS3003;30667;43.614;1.442;2023-09-30T09:17:41;7.80;7.80;3.40
44933;PMS3003;30667;43.614;1.442;2023-09-30T09:20:10;10.00;7.60;4.00
44933;PMS3003;30667;43.614;1.442;2023-09-30T09:22:45;6.60;6.60;3.00
44933;PMS3003;30667;43.614;1.442;2023-09-30T09:25:12;10.00;7.80;3.60
44933;PMS3003;30667;43.614;1.442;2023-09-30T09:27:37;9.50;9.00;4.75
44933;PMS3003;30667;43.614;1.442;2023-09-30T09:30:18;7.75;7.00;4.00
44933;PMS3003;30667;43.614;1.442;2023-09-30T09:35:20;9.20;8.00;3.40
44933;PMS3003;30667;43.614;1.442;2023-09-30T09:38:02;8.40;7.60;3.20
44933;PMS3003;30667;43.614;1.442;2023-09-30T09:40:30;7.60;7.00;3.20
44933;PMS3003;30667;43.614;1.442;2023-09-30T09:42:57;8.00;8.00;3.00
44933;PMS3003;30667;43.614;1.442;2023-09-30T09:45:26;6.20;6.20;3.00
44933;PMS3003;30667;43.614;1.442;2023-09-30T09:47:53;7.00;6.00;2.60
44933;PMS3003;30667;43.614;1.442;2023-09-30T09:50:22;7.20;6.20;3.80
44933;PMS3003;30667;43.614;1.442;2023-09-30T09:52:49;6.40;5.00;2.20
44933;PMS3003;30667;43.614;1.442;2023-09-30T09:55:20;8.00;6.80;2.80
44933;PMS3003;30667;43.614;1.442;2023-09-30T09:57:48;6.40;5.80;2.60
44933;PMS3003;30667;43.614;1.442;2023-09-30T10:00:18;7.60;6.60;2.00
44933;PMS3003;30667;43.614;1.442;2023-09-30T10:02:46;4.80;4.80;2.00
44933;PMS3003;30667;43.614;1.442;2023-09-30T10:05:13;5.20;5.20;2.00
44933;PMS3003;30667;43.614;1.442;2023-09-30T10:10:14;4.00;4.00;2.00
44933;PMS3003;30667;43.614;1.442;2023-09-30T10:12:44;5.00;5.00;2.00
44933;PMS3003;30667;43.614;1.442;2023-09-30T10:17:59;5.40;5.00;2.00
44933;PMS3003;30667;43.614;1.442;2023-09-30T10:20:31;6.00;5.80;2.00
44933;PMS3003;30667;43.614;1.442;2023-09-30T10:25:41;7.40;6.80;3.60
44933;PMS3003;30667;43.614;1.442;2023-09-30T10:31:10;6.80;5.60;2.00
44933;PMS3003;30667;43.614;1.442;2023-09-30T10:38:54;5.40;5.00;2.60
44933;PMS3003;30667;43.614;1.442;2023-09-30T10:42:05;6.60;6.60;3.60
44933;PMS3003;30667;43.614;1.442;2023-09-30T10:46:50;9.60;7.00;3.00
44933;PMS3003;30667;43.614;1.442;2023-09-30T10:51:48;7.60;7.00;2.80
44933;PMS3003;30667;43.614;1.442;2023-09-30T10:54:24;9.20;8.00;4.00
44933;PMS3003;30667;43.614;1.442;2023-09-30T10:56:50;6.60;6.20;3.00
44933;PMS3003;30667;43.614;1.442;2023-09-30T10:59:21;7.20;6.00;3.00
44933;PMS3003;30667;43.614;1.442;2023-09-30T11:01:47;5.00;5.00;2.20
44933;PMS3003;30667;43.614;1.442;2023-09-30T11:04:14;6.00;6.00;2.00
44933;PMS3003;30667;43.614;1.442;2023-09-30T11:06:40;8.20;6.20;2.40
44933;PMS3003;30667;43.614;1.442;2023-09-30T11:09:07;6.40;5.80;2.80
44933;PMS3003;30667;43.614;1.442;2023-09-30T11:11:40;5.80;5.80;3.00
44933;PMS3003;30667;43.614;1.442;2023-09-30T11:16:56;5.00;5.00;2.00
44933;PMS3003;30667;43.614;1.442;2023-09-30T11:19:22;6.00;5.60;2.00
44933;PMS3003;30667;43.614;1.442;2023-09-30T11:21:49;5.60;5.00;2.00
44933;PMS3003;30667;43.614;1.442;2023-09-30T11:24:16;5.00;5.00;3.00
44933;PMS3003;30667;43.614;1.442;2023-09-30T11:26:43;6.00;4.40;2.00
44933;PMS3003;30667;43.614;1.442;2023-09-30T11:29:10;4.80;4.60;2.00
44933;PMS3003;30667;43.614;1.442;2023-09-30T11:31:43;4.00;3.60;2.00
44933;PMS3003;30667;43.614;1.442;2023-09-30T11:34:13;4.40;4.40;1.20
44933;PMS3003;30667;43.614;1.442;2023-09-30T11:36:41;5.00;4.00;1.00
44933;PMS3003;30667;43.614;1.442;2023-09-30T11:39:21;3.80;3.20;1.00
44933;PMS3003;30667;43.614;1.442;2023-09-30T11:41:51;4.60;4.00;1.00
44933;PMS3003;30667;43.614;1.442;2023-09-30T11:44:17;4.20;4.00;1.00
44933;PMS3003;30667;43.614;1.442;2023-09-30T11:46:48;4.00;4.00;2.00
44933;PMS3003;30667;43.614;1.442;2023-09-30T11:49:33;3.80;3.80;2.00
44933;PMS3003;30667;43.614;1.442;2023-09-30T11:52:11;5.40;4.60;2.00
44933;PMS3003;30667;43.614;1.442;2023-09-30T11:54:39;4.60;4.20;2.00
44933;PMS3003;30667;43.614;1.442;2023-09-30T11:57:10;5.00;4.60;2.00
44933;PMS3003;30667;43.614;1.442;2023-09-30T11:59:40;4.20;4.00;1.20
44933;PMS3003;30667;43.614;1.442;2023-09-30T12:02:06;4.40;4.40;2.00
44933;PMS3003;30667;43.614;1.442;2023-09-30T12:04:33;5.00;5.00;2.00
44933;PMS3003;30667;43.614;1.442;2023-09-30T12:06:59;3.20;3.20;1.80
44933;PMS3003;30667;43.614;1.442;2023-09-30T12:09:25;3.75;3.75;2.00
44933;PMS3003;30667;43.614;1.442;2023-09-30T12:11:52;4.60;4.00;1.00
44933;PMS3003;30667;43.614;1.442;2023-09-30T12:14:18;4.60;4.20;2.00
44933;PMS3003;30667;43.614;1.442;2023-09-30T12:16:45;5.40;5.00;1.20
44933;PMS3003;30667;43.614;1.442;2023-09-30T12:19:12;4.60;4.60;0.80
44933;PMS3003;30667;43.614;1.442;2023-09-30T12:21:38;5.60;4.40;2.00
44933;PMS3003;30667;43.614;1.442;2023-09-30T12:24:05;4.80;3.80;1.80
44933;PMS3003;30667;43.614;1.442;2023-09-30T12:26:32;3.80;3.80;1.80
44933;PMS3003;30667;43.614;1.442;2023-09-30T12:28:58;5.75;5.00;2.00
44933;PMS3003;30667;43.614;1.442;2023-09-30T12:31:23;6.75;6.00;2.00
44933;PMS3003;30667;43.614;1.442;2023-09-30T12:33:49;7.00;6.00;2.25
44933;PMS3003;30667;43.614;1.442;2023-09-30T12:36:19;4.00;3.60;1.60
44933;PMS3003;30667;43.614;1.442;2023-09-30T12:38:45;4.20;4.20;2.00
44933;PMS3003;30667;43.614;1.442;2023-09-30T12:41:10;4.00;4.00;1.00
44933;PMS3003;30667;43.614;1.442;2023-09-30T12:43:39;3.75;3.00;1.00
44933;PMS3003;30667;43.614;1.442;2023-09-30T12:46:06;4.00;3.20;1.00
44933;PMS3003;30667;43.614;1.442;2023-09-30T12:48:32;4.00;4.00;2.00
44933;PMS3003;30667;43.614;1.442;2023-09-30T12:50:59;4.20;3.80;0.80
44933;PMS3003;30667;43.614;1.442;2023-09-30T12:53:24;4.00;4.00;2.00
44933;PMS3003;30667;43.614;1.442;2023-09-30T12:55:49;3.75;3.75;1.00
44933;PMS3003;30667;43.614;1.442;2023-09-30T12:58:15;3.50;3.00;1.00
44933;PMS3003;30667;43.614;1.442;2023-09-30T13:00:40;3.75;3.75;1.00
44933;PMS3003;30667;43.614;1.442;2023-09-30T13:03:06;4.00;4.00;1.00
44933;PMS3003;30667;43.614;1.442;2023-09-30T13:05:33;4.40;3.80;1.80
44933;PMS3003;30667;43.614;1.442;2023-09-30T13:07:58;3.20;3.20;1.80
44933;PMS3003;30667;43.614;1.442;2023-09-30T13:10:24;4.00;3.25;1.50
44933;PMS3003;30667;43.614;1.442;2023-09-30T13:12:50;6.20;4.00;1.80
44933;PMS3003;30667;43.614;1.442;2023-09-30T13:15:17;4.80;4.80;1.00
44933;PMS3003;30667;43.614;1.442;2023-09-30T13:17:43;3.20;3.20;1.60
44933;PMS3003;30667;43.614;1.442;2023-09-30T13:20:09;4.50;4.50;2.00
44933;PMS3003;30667;43.614;1.442;2023-09-30T13:22:36;5.60;4.80;1.80
44933;PMS3003;30667;43.614;1.442;2023-09-30T13:25:03;4.80;4.00;1.80
44933;PMS3003;30667;43.614;1.442;2023-09-30T13:27:30;3.40;3.40;1.40
44933;PMS3003;30667;43.614;1.442;2023-09-30T13:29:56;4.40;4.40;1.80
44933;PMS3003;30667;43.614;1.442;2023-09-30T13:32:23;3.80;3.80;0.80
44933;PMS3003;30667;43.614;1.442;2023-09-30T13:34:50;3.80;3.00;0.80
44933;PMS3003;30667;43.614;1.442;2023-09-30T13:37:15;5.60;4.00;1.80
44933;PMS3003;30667;43.614;1.442;2023-09-30T13:39:41;3.25;3.00;1.00
44933;PMS3003;30667;43.614;1.442;2023-09-30T13:42:06;6.75;5.00;2.00
44933;PMS3003;30667;43.614;1.442;2023-09-30T13:44:33;3.60;3.00;0.80
44933;PMS3003;30667;43.614;1.442;2023-09-30T13:46:58;3.75;3.75;1.00
44933;PMS3003;30667;43.614;1.442;2023-09-30T13:49:24;4.75;4.50;1.50
44933;PMS3003;30667;43.614;1.442;2023-09-30T13:51:49;3.50;3.50;2.00
44933;PMS3003;30667;43.614;1.442;2023-09-30T13:54:15;3.00;3.00;1.00
44933;PMS3003;30667;43.614;1.442;2023-09-30T13:56:40;4.00;3.25;1.00
44933;PMS3003;30667;43.614;1.442;2023-09-30T13:59:06;5.00;3.00;1.00
44933;PMS3003;30667;43.614;1.442;2023-09-30T14:01:31;3.75;3.75;1.50
44933;PMS3003;30667;43.614;1.442;2023-09-30T14:03:56;3.00;3.00;1.25
44933;PMS3003;30667;43.614;1.442;2023-09-30T14:06:23;3.00;3.00;1.00
44933;PMS3003;30667;43.614;1.442;2023-09-30T14:08:49;3.80;3.80;1.00
44933;PMS3003;30667;43.614;1.442;2023-09-30T14:11:15;4.00;3.60;1.00
44933;PMS3003;30667;43.614;1.442;2023-09-30T14:13:40;4.50;4.00;1.00
44933;PMS3003;30667;43.614;1.442;2023-09-30T14:16:06;3.00;2.75;1.00
44933;PMS3003;30667;43.614;1.442;2023-09-30T14:18:31;5.25;5.00;2.00
44933;PMS3003;30667;43.614;1.442;2023-09-30T14:20:58;3.60;3.20;0.80
44933;PMS3003;30667;43.614;1.442;2023-09-30T14:23:24;4.00;4.00;1.50
44933;PMS3003;30667;43.614;1.442;2023-09-30T14:25:49;3.50;3.50;2.00
44933;PMS3003;30667;43.614;1.442;2023-09-30T14:28:15;3.00;3.00;0.75
44933;PMS3003;30667;43.614;1.442;2023-09-30T14:30:40;4.00;3.00;1.00
44933;PMS3003;30667;43.614;1.442;2023-09-30T14:33:06;3.25;3.00;1.00
44933;PMS3003;30667;43.614;1.442;2023-09-30T14:35:34;4.00;3.50;1.00
44933;PMS3003;30667;43.614;1.442;2023-09-30T14:38:00;3.00;3.00;1.00
44933;PMS3003;30667;43.614;1.442;2023-09-30T14:40:27;1.80;1.80;0.40
44933;PMS3003;30667;43.614;1.442;2023-09-30T14:42:52;3.50;3.25;1.00